sensor_id;sensor_type;location;lat;lon;timestamp;temperature;humidity
27707;DHT22;36332;51.384;0.040;2022-09-11T00:01:38;15.20;99.90
27707;DHT22;36332;51.384;0.040;2022-09-11T00:04:08;14.90;99.90
27707;DHT22;36332;51.384;0.040;2022-09-11T00:06:36;15.50;99.90
27707;DHT22;36332;51.384;0.040;2022-09-11T00:09:05;14.90;99.90
27707;DHT22;36332;51.384;0.040;2022-09-11T00:11:37;15.00;99.90
27707;DHT22;36332;51.384;0.040;2022-09-11T00:14:09;14.90;99.90
27707;DHT22;36332;51.384;0.040;2022-09-11T00:16:40;14.90;99.90
27707;DHT22;36332;51.384;0.040;2022-09-11T00:19:17;14.90;99.90
27707;DHT22;36332;51.384;0.040;2022-09-11T00:21:47;15.60;99.90
27707;DHT22;36332;51.384;0.040;2022-09-11T00:24:18;14.90;99.90
27707;DHT22;36332;51.384;0.040;2022-09-11T00:26:46;14.80;99.90
27707;DHT22;36332;51.384;0.040;2022-09-11T00:29:14;14.80;99.90
27707;DHT22;36332;51.384;0.040;2022-09-11T00:31:42;14.80;99.90
27707;DHT22;36332;51.384;0.040;2022-09-11T00:34:09;14.70;99.90
27707;DHT22;36332;51.384;0.040;2022-09-11T00:36:38;14.70;99.90
27707;DHT22;36332;51.384;0.040;2022-09-11T00:39:10;14.80;99.90
27707;DHT22;36332;51.384;0.040;2022-09-11T00:41:40;14.70;99.90
27707;DHT22;36332;51.384;0.040;2022-09-11T00:46:48;14.70;99.90
27707;DHT22;36332;51.384;0.040;2022-09-11T00:51:52;14.60;99.90
27707;DHT22;36332;51.384;0.040;2022-09-11T00:54:27;15.20;99.90
27707;DHT22;36332;51.384;0.040;2022-09-11T00:56:59;16.30;99.90
27707;DHT22;36332;51.384;0.040;2022-09-11T00:59:30;14.60;99.90
27707;DHT22;36332;51.384;0.040;2022-09-11T01:02:00;14.90;99.90
27707;DHT22;36332;51.384;0.040;2022-09-11T01:04:28;15.20;99.90
27707;DHT22;36332;51.384;0.040;2022-09-11T01:06:57;14.50;99.90
27707;DHT22;36332;51.384;0.040;2022-09-11T01:09:26;14.90;99.90
27707;DHT22;36332;51.384;0.040;2022-09-11T01:15:16;14.60;99.90
27707;DHT22;36332;51.384;0.040;2022-09-11T01:28:50;14.30;99.90
27707;DHT22;36332;51.384;0.040;2022-09-11T01:31:22;14.30;99.90
27707;DHT22;36332;51.384;0.040;2022-09-11T01:34:18;14.30;99.90
27707;DHT22;36332;51.384;0.040;2022-09-11T01:36:53;14.20;99.90
27707;DHT22;36332;51.384;0.040;2022-09-11T01:39:29;14.20;99.90
27707;DHT22;36332;51.384;0.040;2022-09-11T01:42:07;14.40;99.90
27707;DHT22;36332;51.384;0.040;2022-09-11T01:44:51;14.00;99.90
27707;DHT22;36332;51.384;0.040;2022-09-11T01:47:21;14.10;99.90
27707;DHT22;36332;51.384;0.040;2022-09-11T01:50:03;14.50;99.90
27707;DHT22;36332;51.384;0.040;2022-09-11T01:52:50;14.10;99.90
27707;DHT22;36332;51.384;0.040;2022-09-11T01:55:39;14.20;99.90
27707;DHT22;36332;51.384;0.040;2022-09-11T01:58:12;14.20;99.90
27707;DHT22;36332;51.384;0.040;2022-09-11T02:00:46;13.90;99.90
27707;DHT22;36332;51.384;0.040;2022-09-11T02:03:26;14.00;99.90
27707;DHT22;36332;51.384;0.040;2022-09-11T02:06:04;14.00;99.90
27707;DHT22;36332;51.384;0.040;2022-09-11T02:08:42;14.00;99.90
27707;DHT22;36332;51.384;0.040;2022-09-11T02:11:17;14.10;99.90
27707;DHT22;36332;51.384;0.040;2022-09-11T02:14:00;13.60;99.90
27707;DHT22;36332;51.384;0.040;2022-09-11T02:19:31;13.90;99.90
27707;DHT22;36332;51.384;0.040;2022-09-11T02:21:58;13.90;99.90
27707;DHT22;36332;51.384;0.040;2022-09-11T02:24:27;14.10;99.90
27707;DHT22;36332;51.384;0.040;2022-09-11T02:27:02;13.80;99.90
27707;DHT22;36332;51.384;0.040;2022-09-11T02:29:31;13.80;99.90
27707;DHT22;36332;51.384;0.040;2022-09-11T02:31:59;13.90;99.90
27707;DHT22;36332;51.384;0.040;2022-09-11T02:34:33;13.80;99.90
27707;DHT22;36332;51.384;0.040;2022-09-11T02:51:30;13.80;99.90
27707;DHT22;36332;51.384;0.040;2022-09-11T02:57:29;13.70;99.90
27707;DHT22;36332;51.384;0.040;2022-09-11T03:00:02;13.70;99.90
27707;DHT22;36332;51.384;0.040;2022-09-11T03:02:33;13.60;99.90
27707;DHT22;36332;51.384;0.040;2022-09-11T03:05:05;13.60;99.90
27707;DHT22;36332;51.384;0.040;2022-09-11T03:07:33;13.70;99.90
27707;DHT22;36332;51.384;0.040;2022-09-11T03:10:00;13.60;99.90
27707;DHT22;36332;51.384;0.040;2022-09-11T03:12:29;13.70;99.90
27707;DHT22;36332;51.384;0.040;2022-09-11T03:14:57;13.70;99.90
27707;DHT22;36332;51.384;0.040;2022-09-11T03:17:25;14.30;99.90
27707;DHT22;36332;51.384;0.040;2022-09-11T03:19:53;13.80;99.90
27707;DHT22;36332;51.384;0.040;2022-09-11T03:22:20;13.80;99.90
27707;DHT22;36332;51.384;0.040;2022-09-11T03:24:48;14.30;99.90
27707;DHT22;36332;51.384;0.040;2022-09-11T03:27:16;14.00;99.90
27707;DHT22;36332;51.384;0.040;2022-09-11T03:29:44;14.00;99.90
27707;DHT22;36332;51.384;0.040;2022-09-11T03:32:13;14.10;99.90
27707;DHT22;36332;51.384;0.040;2022-09-11T03:34:42;14.20;99.90
27707;DHT22;36332;51.384;0.040;2022-09-11T03:37:10;14.20;99.90
27707;DHT22;36332;51.384;0.040;2022-09-11T03:39:37;14.20;99.90
27707;DHT22;36332;51.384;0.040;2022-09-11T03:42:05;14.30;99.90
27707;DHT22;36332;51.384;0.040;2022-09-11T03:44:34;14.30;99.90
27707;DHT22;36332;51.384;0.040;2022-09-11T03:47:01;14.30;99.90
27707;DHT22;36332;51.384;0.040;2022-09-11T03:49:29;14.30;99.90
27707;DHT22;36332;51.384;0.040;2022-09-11T03:51:57;16.10;99.90
27707;DHT22;36332;51.384;0.040;2022-09-11T03:54:25;14.40;99.90
27707;DHT22;36332;51.384;0.040;2022-09-11T03:56:54;14.30;99.90
27707;DHT22;36332;51.384;0.040;2022-09-11T03:59:22;14.40;99.90
27707;DHT22;36332;51.384;0.040;2022-09-11T04:01:50;14.30;99.90
27707;DHT22;36332;51.384;0.040;2022-09-11T04:04:18;15.10;99.90
27707;DHT22;36332;51.384;0.040;2022-09-11T04:06:47;13.70;99.90
27707;DHT22;36332;51.384;0.040;2022-09-11T04:09:14;14.40;99.90
27707;DHT22;36332;51.384;0.040;2022-09-11T04:14:17;14.50;99.90
27707;DHT22;36332;51.384;0.040;2022-09-11T04:16:45;14.50;99.90
27707;DHT22;36332;51.384;0.040;2022-09-11T04:19:14;14.50;99.90
27707;DHT22;36332;51.384;0.040;2022-09-11T04:21:43;14.60;99.90
27707;DHT22;36332;51.384;0.040;2022-09-11T04:24:11;15.20;99.90
27707;DHT22;36332;51.384;0.040;2022-09-11T04:26:39;14.60;99.90
27707;DHT22;36332;51.384;0.040;2022-09-11T04:29:19;14.70;99.90
27707;DHT22;36332;51.384;0.040;2022-09-11T04:31:48;14.60;99.90
27707;DHT22;36332;51.384;0.040;2022-09-11T04:34:17;16.30;99.90
27707;DHT22;36332;51.384;0.040;2022-09-11T04:36:44;14.70;99.90
27707;DHT22;36332;51.384;0.040;2022-09-11T04:39:17;14.60;99.90
27707;DHT22;36332;51.384;0.040;2022-09-11T04:41:46;14.60;99.90
27707;DHT22;36332;51.384;0.040;2022-09-11T04:44:15;15.00;99.90
27707;DHT22;36332;51.384;0.040;2022-09-11T04:46:44;14.80;99.90
27707;DHT22;36332;51.384;0.040;2022-09-11T04:49:12;14.80;99.90
27707;DHT22;36332;51.384;0.040;2022-09-11T04:51:41;14.90;99.90
27707;DHT22;36332;51.384;0.040;2022-09-11T04:54:14;15.30;99.90
27707;DHT22;36332;51.384;0.040;2022-09-11T04:56:42;14.90;99.90
27707;DHT22;36332;51.384;0.040;2022-09-11T04:59:14;14.90;99.90
27707;DHT22;36332;51.384;0.040;2022-09-11T05:01:59;14.40;99.90
27707;DHT22;36332;51.384;0.040;2022-09-11T05:04:28;14.80;99.90
27707;DHT22;36332;51.384;0.040;2022-09-11T05:06:56;15.30;99.90
27707;DHT22;36332;51.384;0.040;2022-09-11T05:09:24;15.50;99.90
27707;DHT22;36332;51.384;0.040;2022-09-11T05:11:55;14.90;99.90
27707;DHT22;36332;51.384;0.040;2022-09-11T05:14:27;14.90;99.90
27707;DHT22;36332;51.384;0.040;2022-09-11T05:16:56;14.90;99.90
27707;DHT22;36332;51.384;0.040;2022-09-11T05:19:25;15.40;99.90
27707;DHT22;36332;51.384;0.040;2022-09-11T05:21:53;14.90;99.90
27707;DHT22;36332;51.384;0.040;2022-09-11T05:24:23;14.90;99.90
27707;DHT22;36332;51.384;0.040;2022-09-11T05:26:51;14.90;99.90
27707;DHT22;36332;51.384;0.040;2022-09-11T05:29:19;14.80;99.90
27707;DHT22;36332;51.384;0.040;2022-09-11T05:31:56;15.00;99.90
27707;DHT22;36332;51.384;0.040;2022-09-11T05:34:28;14.90;99.90
27707;DHT22;36332;51.384;0.040;2022-09-11T05:36:57;15.30;99.90
27707;DHT22;36332;51.384;0.040;2022-09-11T05:39:28;14.90;99.90
27707;DHT22;36332;51.384;0.040;2022-09-11T05:41:57;15.40;99.90
27707;DHT22;36332;51.384;0.040;2022-09-11T05:44:29;14.90;99.90
27707;DHT22;36332;51.384;0.040;2022-09-11T05:46:57;15.10;99.90
27707;DHT22;36332;51.384;0.040;2022-09-11T05:49:25;14.90;99.90
27707;DHT22;36332;51.384;0.040;2022-09-11T05:51:53;14.90;99.90
27707;DHT22;36332;51.384;0.040;2022-09-11T05:54:24;15.00;99.90
27707;DHT22;36332;51.384;0.040;2022-09-11T05:56:52;15.00;99.90
27707;DHT22;36332;51.384;0.040;2022-09-11T05:59:24;15.00;99.90
27707;DHT22;36332;51.384;0.040;2022-09-11T06:01:53;14.90;99.90
27707;DHT22;36332;51.384;0.040;2022-09-11T06:04:45;15.00;99.90
27707;DHT22;36332;51.384;0.040;2022-09-11T06:07:13;14.90;99.90
27707;DHT22;36332;51.384;0.040;2022-09-11T06:09:45;15.20;99.90
27707;DHT22;36332;51.384;0.040;2022-09-11T06:12:13;15.20;99.90
27707;DHT22;36332;51.384;0.040;2022-09-11T06:14:42;15.10;99.90
27707;DHT22;36332;51.384;0.040;2022-09-11T06:17:11;15.20;99.90
27707;DHT22;36332;51.384;0.040;2022-09-11T06:19:38;15.20;99.90
27707;DHT22;36332;51.384;0.040;2022-09-11T06:22:07;15.30;99.90
27707;DHT22;36332;51.384;0.040;2022-09-11T06:24:39;15.30;99.90
27707;DHT22;36332;51.384;0.040;2022-09-11T06:27:07;15.40;99.90
27707;DHT22;36332;51.384;0.040;2022-09-11T06:29:38;15.40;99.90
27707;DHT22;36332;51.384;0.040;2022-09-11T06:32:06;16.00;99.90
27707;DHT22;36332;51.384;0.040;2022-09-11T06:34:34;15.40;99.90
27707;DHT22;36332;51.384;0.040;2022-09-11T06:37:06;16.20;99.90
27707;DHT22;36332;51.384;0.040;2022-09-11T06:39:33;15.70;99.90
27707;DHT22;36332;51.384;0.040;2022-09-11T06:42:04;15.80;99.90
27707;DHT22;36332;51.384;0.040;2022-09-11T06:44:36;15.80;99.90
27707;DHT22;36332;51.384;0.040;2022-09-11T06:47:06;15.90;99.90
27707;DHT22;36332;51.384;0.040;2022-09-11T06:49:35;16.50;99.90
27707;DHT22;36332;51.384;0.040;2022-09-11T06:52:24;16.10;99.90
27707;DHT22;36332;51.384;0.040;2022-09-11T06:55:04;16.40;99.90
27707;DHT22;36332;51.384;0.040;2022-09-11T06:57:31;16.40;99.90
27707;DHT22;36332;51.384;0.040;2022-09-11T06:59:59;16.50;99.90
27707;DHT22;36332;51.384;0.040;2022-09-11T07:02:31;16.70;99.90
27707;DHT22;36332;51.384;0.040;2022-09-11T07:05:00;16.60;99.90
27707;DHT22;36332;51.384;0.040;2022-09-11T07:07:28;16.70;99.90
27707;DHT22;36332;51.384;0.040;2022-09-11T07:09:56;16.70;99.90
27707;DHT22;36332;51.384;0.040;2022-09-11T07:12:24;17.40;99.90
27707;DHT22;36332;51.384;0.040;2022-09-11T07:14:54;16.90;99.90
27707;DHT22;36332;51.384;0.040;2022-09-11T07:17:22;17.00;99.90
27707;DHT22;36332;51.384;0.040;2022-09-11T07:19:51;17.00;99.90
27707;DHT22;36332;51.384;0.040;2022-09-11T07:22:19;17.10;99.90
27707;DHT22;36332;51.384;0.040;2022-09-11T07:24:48;17.20;99.90
27707;DHT22;36332;51.384;0.040;2022-09-11T07:27:22;17.30;99.90
27707;DHT22;36332;51.384;0.040;2022-09-11T07:29:50;17.40;99.90
27707;DHT22;36332;51.384;0.040;2022-09-11T07:32:17;17.50;99.90
27707;DHT22;36332;51.384;0.040;2022-09-11T07:34:45;17.70;99.90
27707;DHT22;36332;51.384;0.040;2022-09-11T07:37:14;17.70;99.90
27707;DHT22;36332;51.384;0.040;2022-09-11T07:39:42;17.00;99.90
27707;DHT22;36332;51.384;0.040;2022-09-11T07:42:17;17.90;99.90
27707;DHT22;36332;51.384;0.040;2022-09-11T07:44:45;18.10;99.90
27707;DHT22;36332;51.384;0.040;2022-09-11T07:47:14;18.10;99.90
27707;DHT22;36332;51.384;0.040;2022-09-11T07:49:46;18.90;99.90
27707;DHT22;36332;51.384;0.040;2022-09-11T07:52:14;18.30;99.90
27707;DHT22;36332;51.384;0.040;2022-09-11T07:54:49;18.60;99.90
27707;DHT22;36332;51.384;0.040;2022-09-11T07:57:19;18.50;99.90
27707;DHT22;36332;51.384;0.040;2022-09-11T07:59:49;18.70;99.90
27707;DHT22;36332;51.384;0.040;2022-09-11T08:02:18;18.90;99.90
27707;DHT22;36332;51.384;0.040;2022-09-11T08:04:46;18.90;99.90
27707;DHT22;36332;51.384;0.040;2022-09-11T08:07:14;18.90;99.90
27707;DHT22;36332;51.384;0.040;2022-09-11T08:09:43;19.20;99.90
27707;DHT22;36332;51.384;0.040;2022-09-11T08:12:11;19.80;99.90
27707;DHT22;36332;51.384;0.040;2022-09-11T08:14:39;19.60;99.90
27707;DHT22;36332;51.384;0.040;2022-09-11T08:17:13;19.80;99.90
27707;DHT22;36332;51.384;0.040;2022-09-11T08:19:42;19.80;99.90
27707;DHT22;36332;51.384;0.040;2022-09-11T08:22:11;20.10;99.90
27707;DHT22;36332;51.384;0.040;2022-09-11T08:24:43;20.10;99.90
27707;DHT22;36332;51.384;0.040;2022-09-11T08:27:14;20.30;99.90
27707;DHT22;36332;51.384;0.040;2022-09-11T08:29:42;20.30;99.90
27707;DHT22;36332;51.384;0.040;2022-09-11T08:32:10;20.40;99.90
27707;DHT22;36332;51.384;0.040;2022-09-11T08:34:40;20.30;99.90
27707;DHT22;36332;51.384;0.040;2022-09-11T08:37:08;20.30;99.90
27707;DHT22;36332;51.384;0.040;2022-09-11T08:39:37;19.90;99.90
27707;DHT22;36332;51.384;0.040;2022-09-11T08:42:10;20.30;99.90
27707;DHT22;36332;51.384;0.040;2022-09-11T08:44:49;20.60;99.90
27707;DHT22;36332;51.384;0.040;2022-09-11T08:47:38;20.50;99.90
27707;DHT22;36332;51.384;0.040;2022-09-11T08:50:24;21.10;99.90
27707;DHT22;36332;51.384;0.040;2022-09-11T08:52:53;20.70;99.90
27707;DHT22;36332;51.384;0.040;2022-09-11T08:58:13;20.90;99.90
27707;DHT22;36332;51.384;0.040;2022-09-11T09:01:08;21.20;99.90
27707;DHT22;36332;51.384;0.040;2022-09-11T09:04:06;21.10;99.90
27707;DHT22;36332;51.384;0.040;2022-09-11T09:12:36;23.30;99.90
27707;DHT22;36332;51.384;0.040;2022-09-11T09:18:14;21.90;99.90
27707;DHT22;36332;51.384;0.040;2022-09-11T09:21:34;22.20;99.90
27707;DHT22;36332;51.384;0.040;2022-09-11T09:23:50;22.30;99.90
27707;DHT22;36332;51.384;0.040;2022-09-11T09:26:19;22.60;99.90
27707;DHT22;36332;51.384;0.040;2022-09-11T09:28:51;22.70;99.90
27707;DHT22;36332;51.384;0.040;2022-09-11T09:31:22;23.30;99.90
27707;DHT22;36332;51.384;0.040;2022-09-11T09:34:05;23.40;99.90
27707;DHT22;36332;51.384;0.040;2022-09-11T09:39:14;23.10;99.90
27707;DHT22;36332;51.384;0.040;2022-09-11T09:42:23;22.70;99.90
27707;DHT22;36332;51.384;0.040;2022-09-11T09:47:47;22.10;99.90
27707;DHT22;36332;51.384;0.040;2022-09-11T09:50:32;22.40;99.90
27707;DHT22;36332;51.384;0.040;2022-09-11T09:55:54;21.90;99.90
27707;DHT22;36332;51.384;0.040;2022-09-11T09:58:26;22.10;99.90
27707;DHT22;36332;51.384;0.040;2022-09-11T10:00:56;22.20;99.90
27707;DHT22;36332;51.384;0.040;2022-09-11T10:03:25;21.80;99.90
27707;DHT22;36332;51.384;0.040;2022-09-11T10:05:56;21.90;99.90
27707;DHT22;36332;51.384;0.040;2022-09-11T10:08:30;22.30;99.90
27707;DHT22;36332;51.384;0.040;2022-09-11T10:11:06;22.50;99.90
27707;DHT22;36332;51.384;0.040;2022-09-11T10:13:37;23.00;99.90
27707;DHT22;36332;51.384;0.040;2022-09-11T10:16:22;23.10;99.90
27707;DHT22;36332;51.384;0.040;2022-09-11T10:18:53;23.30;99.90
27707;DHT22;36332;51.384;0.040;2022-09-11T10:21:23;24.00;99.90
27707;DHT22;36332;51.384;0.040;2022-09-11T10:26:42;23.50;99.90
27707;DHT22;36332;51.384;0.040;2022-09-11T10:29:24;23.60;99.90
27707;DHT22;36332;51.384;0.040;2022-09-11T10:32:00;23.50;99.90
27707;DHT22;36332;51.384;0.040;2022-09-11T10:34:37;23.90;99.90
27707;DHT22;36332;51.384;0.040;2022-09-11T10:39:42;23.90;99.90
27707;DHT22;36332;51.384;0.040;2022-09-11T10:42:16;23.80;99.90
27707;DHT22;36332;51.384;0.040;2022-09-11T10:44:48;24.50;99.90
27707;DHT22;36332;51.384;0.040;2022-09-11T10:49:48;24.80;99.90
27707;DHT22;36332;51.384;0.040;2022-09-11T10:52:18;24.70;99.90
27707;DHT22;36332;51.384;0.040;2022-09-11T10:54:59;24.40;99.90
27707;DHT22;36332;51.384;0.040;2022-09-11T10:57:44;24.90;99.90
27707;DHT22;36332;51.384;0.040;2022-09-11T11:02:53;24.80;99.90
27707;DHT22;36332;51.384;0.040;2022-09-11T11:08:13;25.10;99.90
27707;DHT22;36332;51.384;0.040;2022-09-11T11:11:14;25.30;99.90
27707;DHT22;36332;51.384;0.040;2022-09-11T11:16:34;25.40;99.90
27707;DHT22;36332;51.384;0.040;2022-09-11T11:24:45;25.50;99.90
27707;DHT22;36332;51.384;0.040;2022-09-11T11:27:32;25.40;99.90
27707;DHT22;36332;51.384;0.040;2022-09-11T11:30:16;25.40;99.90
27707;DHT22;36332;51.384;0.040;2022-09-11T11:33:12;25.30;99.90
27707;DHT22;36332;51.384;0.040;2022-09-11T11:41:41;24.80;99.90
27707;DHT22;36332;51.384;0.040;2022-09-11T11:44:15;24.80;99.90
27707;DHT22;36332;51.384;0.040;2022-09-11T11:46:48;24.80;99.90
27707;DHT22;36332;51.384;0.040;2022-09-11T11:49:47;24.80;99.90
27707;DHT22;36332;51.384;0.040;2022-09-11T11:58:20;25.10;99.90
27707;DHT22;36332;51.384;0.040;2022-09-11T12:00:55;25.20;99.90
27707;DHT22;36332;51.384;0.040;2022-09-11T12:13:44;27.70;99.90
27707;DHT22;36332;51.384;0.040;2022-09-11T12:16:23;28.20;99.90
27707;DHT22;36332;51.384;0.040;2022-09-11T12:19:18;28.20;99.90
27707;DHT22;36332;51.384;0.040;2022-09-11T12:25:34;27.90;99.90
27707;DHT22;36332;51.384;0.040;2022-09-11T12:27:48;27.80;99.90
27707;DHT22;36332;51.384;0.040;2022-09-11T12:40:51;28.20;99.90
27707;DHT22;36332;51.384;0.040;2022-09-11T12:51:58;26.50;99.90
27707;DHT22;36332;51.384;0.040;2022-09-11T12:54:40;26.50;99.90
27707;DHT22;36332;51.384;0.040;2022-09-11T12:57:19;26.30;99.90
27707;DHT22;36332;51.384;0.040;2022-09-11T12:59:53;26.20;99.90
27707;DHT22;36332;51.384;0.040;2022-09-11T13:02:43;25.90;99.90
27707;DHT22;36332;51.384;0.040;2022-09-11T13:05:28;25.70;99.90
27707;DHT22;36332;51.384;0.040;2022-09-11T13:08:12;25.70;99.90
27707;DHT22;36332;51.384;0.040;2022-09-11T13:10:42;25.60;99.90
27707;DHT22;36332;51.384;0.040;2022-09-11T13:18:46;26.90;99.90
27707;DHT22;36332;51.384;0.040;2022-09-11T13:21:16;27.50;99.90
27707;DHT22;36332;51.384;0.040;2022-09-11T13:23:50;27.70;99.90
27707;DHT22;36332;51.384;0.040;2022-09-11T13:26:25;28.90;99.90
27707;DHT22;36332;51.384;0.040;2022-09-11T13:28:55;28.70;99.90
27707;DHT22;36332;51.384;0.040;2022-09-11T13:31:35;27.40;99.90
27707;DHT22;36332;51.384;0.040;2022-09-11T13:34:11;28.90;99.90
27707;DHT22;36332;51.384;0.040;2022-09-11T13:36:40;29.00;99.90
27707;DHT22;36332;51.384;0.040;2022-09-11T13:39:08;28.80;99.90
27707;DHT22;36332;51.384;0.040;2022-09-11T13:41:39;28.40;99.90
27707;DHT22;36332;51.384;0.040;2022-09-11T13:44:25;28.40;99.90
27707;DHT22;36332;51.384;0.040;2022-09-11T13:46:57;28.50;99.90
27707;DHT22;36332;51.384;0.040;2022-09-11T13:49:37;29.10;99.90
27707;DHT22;36332;51.384;0.040;2022-09-11T13:52:08;28.70;99.90
27707;DHT22;36332;51.384;0.040;2022-09-11T13:54:42;28.60;99.90
27707;DHT22;36332;51.384;0.040;2022-09-11T13:57:19;26.60;99.90
27707;DHT22;36332;51.384;0.040;2022-09-11T13:59:54;28.10;99.90
27707;DHT22;36332;51.384;0.040;2022-09-11T14:03:03;28.40;99.90
27707;DHT22;36332;51.384;0.040;2022-09-11T14:05:25;28.60;99.90
27707;DHT22;36332;51.384;0.040;2022-09-11T14:08:03;28.40;99.90
27707;DHT22;36332;51.384;0.040;2022-09-11T14:10:44;28.10;99.90
27707;DHT22;36332;51.384;0.040;2022-09-11T14:16:08;27.20;99.90
27707;DHT22;36332;51.384;0.040;2022-09-11T14:19:05;26.90;99.90
27707;DHT22;36332;51.384;0.040;2022-09-11T14:21:36;26.60;99.90
27707;DHT22;36332;51.384;0.040;2022-09-11T14:29:57;28.00;99.90
27707;DHT22;36332;51.384;0.040;2022-09-11T14:32:30;29.90;99.90
27707;DHT22;36332;51.384;0.040;2022-09-11T14:35:00;30.40;99.90
27707;DHT22;36332;51.384;0.040;2022-09-11T14:37:29;31.20;99.90
27707;DHT22;36332;51.384;0.040;2022-09-11T14:40:04;32.90;99.90
27707;DHT22;36332;51.384;0.040;2022-09-11T14:42:34;32.70;99.90
27707;DHT22;36332;51.384;0.040;2022-09-11T14:45:07;33.00;98.90
27707;DHT22;36332;51.384;0.040;2022-09-11T14:47:35;33.50;99.90
27707;DHT22;36332;51.384;0.040;2022-09-11T14:50:04;33.30;96.20
27707;DHT22;36332;51.384;0.040;2022-09-11T14:52:41;33.10;95.50
27707;DHT22;36332;51.384;0.040;2022-09-11T14:55:14;32.90;94.30
27707;DHT22;36332;51.384;0.040;2022-09-11T14:57:42;32.90;94.80
27707;DHT22;36332;51.384;0.040;2022-09-11T15:00:16;33.00;93.70
27707;DHT22;36332;51.384;0.040;2022-09-11T15:02:44;33.10;93.80
27707;DHT22;36332;51.384;0.040;2022-09-11T15:05:16;33.30;93.70
27707;DHT22;36332;51.384;0.040;2022-09-11T15:07:43;33.50;93.30
27707;DHT22;36332;51.384;0.040;2022-09-11T15:10:15;33.80;92.70
27707;DHT22;36332;51.384;0.040;2022-09-11T15:12:43;33.70;91.70
27707;DHT22;36332;51.384;0.040;2022-09-11T15:15:15;34.30;91.10
27707;DHT22;36332;51.384;0.040;2022-09-11T15:17:44;34.60;90.10
27707;DHT22;36332;51.384;0.040;2022-09-11T15:20:12;34.70;88.50
27707;DHT22;36332;51.384;0.040;2022-09-11T15:22:40;34.60;87.90
27707;DHT22;36332;51.384;0.040;2022-09-11T15:25:07;34.80;82.10
27707;DHT22;36332;51.384;0.040;2022-09-11T15:27:35;34.80;82.10
27707;DHT22;36332;51.384;0.040;2022-09-11T15:30:03;34.80;84.90
27707;DHT22;36332;51.384;0.040;2022-09-11T15:32:31;34.70;83.20
27707;DHT22;36332;51.384;0.040;2022-09-11T15:34:59;34.70;94.60
27707;DHT22;36332;51.384;0.040;2022-09-11T15:37:28;34.50;96.70
27707;DHT22;36332;51.384;0.040;2022-09-11T15:39:56;34.80;93.90
27707;DHT22;36332;51.384;0.040;2022-09-11T15:42:26;34.70;95.30
27707;DHT22;36332;51.384;0.040;2022-09-11T15:44:54;34.40;94.30
27707;DHT22;36332;51.384;0.040;2022-09-11T15:47:22;32.90;94.00
27707;DHT22;36332;51.384;0.040;2022-09-11T15:49:50;34.20;94.70
27707;DHT22;36332;51.384;0.040;2022-09-11T15:52:21;34.30;94.50
27707;DHT22;36332;51.384;0.040;2022-09-11T15:54:49;33.80;95.20
27707;DHT22;36332;51.384;0.040;2022-09-11T15:57:17;33.30;94.90
27707;DHT22;36332;51.384;0.040;2022-09-11T15:59:45;33.20;94.80
27707;DHT22;36332;51.384;0.040;2022-09-11T16:02:13;32.80;94.10
27707;DHT22;36332;51.384;0.040;2022-09-11T16:04:44;33.40;99.90
27707;DHT22;36332;51.384;0.040;2022-09-11T16:07:20;33.40;90.90
27707;DHT22;36332;51.384;0.040;2022-09-11T16:09:47;32.70;92.10
27707;DHT22;36332;51.384;0.040;2022-09-11T16:12:15;32.40;92.10
27707;DHT22;36332;51.384;0.040;2022-09-11T16:14:44;31.20;92.90
27707;DHT22;36332;51.384;0.040;2022-09-11T16:17:12;29.70;93.90
27707;DHT22;36332;51.384;0.040;2022-09-11T16:19:46;27.40;93.80
27707;DHT22;36332;51.384;0.040;2022-09-11T16:22:18;28.60;96.10
27707;DHT22;36332;51.384;0.040;2022-09-11T16:24:46;27.80;96.50
27707;DHT22;36332;51.384;0.040;2022-09-11T16:27:14;28.00;96.70
27707;DHT22;36332;51.384;0.040;2022-09-11T16:29:41;27.70;97.80
27707;DHT22;36332;51.384;0.040;2022-09-11T16:32:30;27.40;98.70
27707;DHT22;36332;51.384;0.040;2022-09-11T16:35:05;26.90;99.00
27707;DHT22;36332;51.384;0.040;2022-09-11T16:37:34;27.30;98.50
27707;DHT22;36332;51.384;0.040;2022-09-11T16:40:04;27.30;98.30
27707;DHT22;36332;51.384;0.040;2022-09-11T16:42:32;27.60;98.30
27707;DHT22;36332;51.384;0.040;2022-09-11T16:45:00;27.90;98.20
27707;DHT22;36332;51.384;0.040;2022-09-11T16:47:27;28.00;97.90
27707;DHT22;36332;51.384;0.040;2022-09-11T16:49:56;27.20;98.60
27707;DHT22;36332;51.384;0.040;2022-09-11T16:52:39;27.70;98.40
27707;DHT22;36332;51.384;0.040;2022-09-11T16:55:08;27.40;98.80
27707;DHT22;36332;51.384;0.040;2022-09-11T16:57:38;26.50;93.50
27707;DHT22;36332;51.384;0.040;2022-09-11T17:00:06;26.30;93.80
27707;DHT22;36332;51.384;0.040;2022-09-11T17:02:37;25.90;94.00
27707;DHT22;36332;51.384;0.040;2022-09-11T17:05:05;25.10;94.90
27707;DHT22;36332;51.384;0.040;2022-09-11T17:07:35;24.90;95.40
27707;DHT22;36332;51.384;0.040;2022-09-11T17:10:03;24.70;95.70
27707;DHT22;36332;51.384;0.040;2022-09-11T17:12:31;24.30;96.50
27707;DHT22;36332;51.384;0.040;2022-09-11T17:14:59;24.10;97.20
27707;DHT22;36332;51.384;0.040;2022-09-11T17:17:26;23.80;97.20
27707;DHT22;36332;51.384;0.040;2022-09-11T17:22:24;23.50;98.20
27707;DHT22;36332;51.384;0.040;2022-09-11T17:24:52;23.30;98.70
27707;DHT22;36332;51.384;0.040;2022-09-11T17:27:19;23.90;99.90
27707;DHT22;36332;51.384;0.040;2022-09-11T17:29:47;23.10;99.90
27707;DHT22;36332;51.384;0.040;2022-09-11T17:32:15;23.00;99.90
27707;DHT22;36332;51.384;0.040;2022-09-11T17:34:56;22.90;99.90
27707;DHT22;36332;51.384;0.040;2022-09-11T17:37:25;22.70;99.90
27707;DHT22;36332;51.384;0.040;2022-09-11T17:39:53;22.60;99.90
27707;DHT22;36332;51.384;0.040;2022-09-11T17:42:20;22.70;99.90
27707;DHT22;36332;51.384;0.040;2022-09-11T17:44:49;22.50;99.90
27707;DHT22;36332;51.384;0.040;2022-09-11T17:47:17;22.20;99.90
27707;DHT22;36332;51.384;0.040;2022-09-11T17:49:45;22.10;99.90
27707;DHT22;36332;51.384;0.040;2022-09-11T17:52:13;22.30;99.90
27707;DHT22;36332;51.384;0.040;2022-09-11T17:54:41;21.90;99.90
27707;DHT22;36332;51.384;0.040;2022-09-11T17:59:38;21.70;99.90
27707;DHT22;36332;51.384;0.040;2022-09-11T18:02:08;21.60;99.90
27707;DHT22;36332;51.384;0.040;2022-09-11T18:04:36;21.80;99.90
27707;DHT22;36332;51.384;0.040;2022-09-11T18:07:05;21.40;99.90
27707;DHT22;36332;51.384;0.040;2022-09-11T18:09:32;21.70;99.90
27707;DHT22;36332;51.384;0.040;2022-09-11T18:12:00;21.30;99.90
27707;DHT22;36332;51.384;0.040;2022-09-11T18:14:30;21.60;99.90
27707;DHT22;36332;51.384;0.040;2022-09-11T18:16:57;22.30;99.90
27707;DHT22;36332;51.384;0.040;2022-09-11T18:19:25;21.00;99.90
27707;DHT22;36332;51.384;0.040;2022-09-11T18:21:54;21.20;99.90
27707;DHT22;36332;51.384;0.040;2022-09-11T18:24:22;21.00;99.90
27707;DHT22;36332;51.384;0.040;2022-09-11T18:26:52;21.10;99.90
27707;DHT22;36332;51.384;0.040;2022-09-11T18:29:27;20.90;99.90